sensor_id;sensor_type;location;lat;lon;timestamp;P1;durP1;ratioP1;P2;durP2;ratioP2
71150;SDS011;59071;42.138;24.768;2024-03-22T00:02:15;14.18;;;7.82;;
71150;SDS011;59071;42.138;24.768;2024-03-22T00:04:40;15.18;;;8.85;;
71150;SDS011;59071;42.138;24.768;2024-03-22T00:07:06;15.85;;;8.88;;
71150;SDS011;59071;42.138;24.768;2024-03-22T00:09:31;15.85;;;8.68;;
71150;SDS011;59071;42.138;24.768;2024-03-22T00:11:56;16.50;;;9.85;;
71150;SDS011;59071;42.138;24.768;2024-03-22T00:14:22;15.93;;;9.30;;
71150;SDS011;59071;42.138;24.768;2024-03-22T00:16:47;16.75;;;9.75;;
71150;SDS011;59071;42.138;24.768;2024-03-22T00:19:13;15.75;;;9.40;;
71150;SDS011;59071;42.138;24.768;2024-03-22T00:21:38;14.88;;;9.32;;
71150;SDS011;59071;42.138;24.768;2024-03-22T00:24:04;14.77;;;8.73;;
71150;SDS011;59071;42.138;24.768;2024-03-22T00:26:29;13.73;;;8.95;;
71150;SDS011;59071;42.138;24.768;2024-03-22T00:28:54;14.15;;;8.98;;
71150;SDS011;59071;42.138;24.768;2024-03-22T00:31:22;13.80;;;9.25;;
71150;SDS011;59071;42.138;24.768;2024-03-22T00:33:48;12.60;;;8.30;;
71150;SDS011;59071;42.138;24.768;2024-03-22T00:36:13;15.25;;;9.25;;
71150;SDS011;59071;42.138;24.768;2024-03-22T00:38:38;16.33;;;8.65;;
71150;SDS011;59071;42.138;24.768;2024-03-22T00:41:04;14.52;;;9.18;;
71150;SDS011;59071;42.138;24.768;2024-03-22T00:43:29;14.13;;;8.32;;
71150;SDS011;59071;42.138;24.768;2024-03-22T00:45:54;13.95;;;8.30;;
71150;SDS011;59071;42.138;24.768;2024-03-22T00:48:20;14.30;;;8.73;;
71150;SDS011;59071;42.138;24.768;2024-03-22T00:50:45;14.07;;;8.50;;
71150;SDS011;59071;42.138;24.768;2024-03-22T00:53:11;14.48;;;8.30;;
71150;SDS011;59071;42.138;24.768;2024-03-22T00:55:36;13.63;;;8.75;;
71150;SDS011;59071;42.138;24.768;2024-03-22T00:58:02;12.73;;;8.57;;
71150;SDS011;59071;42.138;24.768;2024-03-22T01:00:27;13.82;;;8.30;;
71150;SDS011;59071;42.138;24.768;2024-03-22T01:02:53;16.38;;;9.00;;
71150;SDS011;59071;42.138;24.768;2024-03-22T01:05:18;14.15;;;9.00;;
71150;SDS011;59071;42.138;24.768;2024-03-22T01:07:44;14.75;;;8.82;;
71150;SDS011;59071;42.138;24.768;2024-03-22T01:10:10;14.68;;;9.48;;
71150;SDS011;59071;42.138;24.768;2024-03-22T01:12:35;14.38;;;8.70;;
71150;SDS011;59071;42.138;24.768;2024-03-22T01:15:01;15.63;;;9.27;;
71150;SDS011;59071;42.138;24.768;2024-03-22T01:17:26;16.02;;;9.60;;
71150;SDS011;59071;42.138;24.768;2024-03-22T01:19:52;16.15;;;9.25;;
71150;SDS011;59071;42.138;24.768;2024-03-22T01:22:17;14.93;;;9.25;;
71150;SDS011;59071;42.138;24.768;2024-03-22T01:24:43;16.02;;;9.30;;
71150;SDS011;59071;42.138;24.768;2024-03-22T01:27:09;15.13;;;9.85;;
71150;SDS011;59071;42.138;24.768;2024-03-22T01:29:34;15.55;;;9.73;;
71150;SDS011;59071;42.138;24.768;2024-03-22T01:32:00;19.02;;;11.15;;
71150;SDS011;59071;42.138;24.768;2024-03-22T01:34:26;21.63;;;12.43;;
71150;SDS011;59071;42.138;24.768;2024-03-22T01:36:51;17.85;;;10.68;;
71150;SDS011;59071;42.138;24.768;2024-03-22T01:39:18;18.65;;;10.23;;
71150;SDS011;59071;42.138;24.768;2024-03-22T01:41:46;18.45;;;10.40;;
71150;SDS011;59071;42.138;24.768;2024-03-22T01:44:12;18.35;;;10.85;;
71150;SDS011;59071;42.138;24.768;2024-03-22T01:46:39;17.92;;;10.57;;
71150;SDS011;59071;42.138;24.768;2024-03-22T01:49:04;17.02;;;10.65;;
71150;SDS011;59071;42.138;24.768;2024-03-22T01:51:30;21.73;;;11.90;;
71150;SDS011;59071;42.138;24.768;2024-03-22T01:53:55;17.38;;;10.60;;
71150;SDS011;59071;42.138;24.768;2024-03-22T01:56:23;18.58;;;10.88;;
71150;SDS011;59071;42.138;24.768;2024-03-22T01:58:49;17.27;;;10.93;;
71150;SDS011;59071;42.138;24.768;2024-03-22T02:01:14;23.27;;;11.13;;
71150;SDS011;59071;42.138;24.768;2024-03-22T02:03:39;19.85;;;11.52;;
71150;SDS011;59071;42.138;24.768;2024-03-22T02:06:05;17.55;;;11.00;;
71150;SDS011;59071;42.138;24.768;2024-03-22T02:08:30;17.33;;;10.65;;
71150;SDS011;59071;42.138;24.768;2024-03-22T02:10:56;18.90;;;10.40;;
71150;SDS011;59071;42.138;24.768;2024-03-22T02:13:21;18.80;;;11.52;;
71150;SDS011;59071;42.138;24.768;2024-03-22T02:15:46;17.80;;;10.70;;
71150;SDS011;59071;42.138;24.768;2024-03-22T02:18:12;23.60;;;11.27;;
71150;SDS011;59071;42.138;24.768;2024-03-22T02:20:37;19.23;;;10.65;;
71150;SDS011;59071;42.138;24.768;2024-03-22T02:23:02;17.80;;;11.25;;
71150;SDS011;59071;42.138;24.768;2024-03-22T02:25:28;16.48;;;10.93;;
71150;SDS011;59071;42.138;24.768;2024-03-22T02:27:53;18.77;;;11.50;;
71150;SDS011;59071;42.138;24.768;2024-03-22T02:30:18;18.77;;;11.52;;
71150;SDS011;59071;42.138;24.768;2024-03-22T02:32:44;21.63;;;12.02;;
71150;SDS011;59071;42.138;24.768;2024-03-22T02:35:09;19.00;;;10.98;;
71150;SDS011;59071;42.138;24.768;2024-03-22T02:37:35;18.40;;;11.70;;
71150;SDS011;59071;42.138;24.768;2024-03-22T02:40:00;20.17;;;12.10;;
71150;SDS011;59071;42.138;24.768;2024-03-22T02:42:25;22.60;;;12.80;;
71150;SDS011;59071;42.138;24.768;2024-03-22T02:44:51;18.65;;;11.95;;
71150;SDS011;59071;42.138;24.768;2024-03-22T02:47:16;20.50;;;12.77;;
71150;SDS011;59071;42.138;24.768;2024-03-22T02:49:42;21.42;;;13.00;;
71150;SDS011;59071;42.138;24.768;2024-03-22T02:52:07;23.40;;;13.50;;
71150;SDS011;59071;42.138;24.768;2024-03-22T02:54:32;20.70;;;12.02;;
71150;SDS011;59071;42.138;24.768;2024-03-22T02:56:58;20.80;;;13.35;;
71150;SDS011;59071;42.138;24.768;2024-03-22T02:59:26;20.35;;;12.35;;
71150;SDS011;59071;42.138;24.768;2024-03-22T03:01:52;21.08;;;12.38;;
71150;SDS011;59071;42.138;24.768;2024-03-22T03:04:17;19.92;;;12.63;;
71150;SDS011;59071;42.138;24.768;2024-03-22T03:06:43;20.85;;;13.10;;
71150;SDS011;59071;42.138;24.768;2024-03-22T03:09:10;19.05;;;11.98;;
71150;SDS011;59071;42.138;24.768;2024-03-22T03:11:36;19.17;;;11.30;;
71150;SDS011;59071;42.138;24.768;2024-03-22T03:14:03;18.73;;;11.70;;
71150;SDS011;59071;42.138;24.768;2024-03-22T03:16:28;20.48;;;11.95;;
71150;SDS011;59071;42.138;24.768;2024-03-22T03:18:53;19.92;;;11.52;;
71150;SDS011;59071;42.138;24.768;2024-03-22T03:21:19;19.48;;;12.00;;
71150;SDS011;59071;42.138;24.768;2024-03-22T03:23:44;18.38;;;11.38;;
71150;SDS011;59071;42.138;24.768;2024-03-22T03:26:09;19.63;;;11.02;;
71150;SDS011;59071;42.138;24.768;2024-03-22T03:28:35;21.85;;;12.32;;
71150;SDS011;59071;42.138;24.768;2024-03-22T03:31:00;17.63;;;11.35;;
71150;SDS011;59071;42.138;24.768;2024-03-22T03:33:25;20.15;;;11.50;;
71150;SDS011;59071;42.138;24.768;2024-03-22T03:35:51;19.88;;;11.48;;
71150;SDS011;59071;42.138;24.768;2024-03-22T03:38:16;17.67;;;11.15;;
71150;SDS011;59071;42.138;24.768;2024-03-22T03:40:41;22.88;;;13.02;;
71150;SDS011;59071;42.138;24.768;2024-03-22T03:43:07;21.70;;;12.20;;
71150;SDS011;59071;42.138;24.768;2024-03-22T03:45:32;23.83;;;12.30;;
71150;SDS011;59071;42.138;24.768;2024-03-22T03:48:01;18.70;;;11.57;;
71150;SDS011;59071;42.138;24.768;2024-03-22T03:50:27;21.00;;;11.57;;
71150;SDS011;59071;42.138;24.768;2024-03-22T03:52:52;24.80;;;11.95;;
71150;SDS011;59071;42.138;24.768;2024-03-22T03:55:17;21.50;;;12.38;;
71150;SDS011;59071;42.138;24.768;2024-03-22T03:57:43;19.90;;;11.95;;
71150;SDS011;59071;42.138;24.768;2024-03-22T04:00:08;21.70;;;12.70;;
71150;SDS011;59071;42.138;24.768;2024-03-22T04:02:34;26.30;;;15.23;;
71150;SDS011;59071;42.138;24.768;2024-03-22T04:04:59;28.80;;;14.60;;
71150;SDS011;59071;42.138;24.768;2024-03-22T04:07:24;26.38;;;15.32;;
71150;SDS011;59071;42.138;24.768;2024-03-22T04:09:50;31.45;;;14.98;;
71150;SDS011;59071;42.138;24.768;2024-03-22T04:12:15;29.08;;;14.75;;
71150;SDS011;59071;42.138;24.768;2024-03-22T04:14:41;27.40;;;14.45;;
71150;SDS011;59071;42.138;24.768;2024-03-22T04:17:06;26.90;;;14.32;;
71150;SDS011;59071;42.138;24.768;2024-03-22T04:19:32;26.33;;;14.70;;
71150;SDS011;59071;42.138;24.768;2024-03-22T04:21:57;24.38;;;14.55;;
71150;SDS011;59071;42.138;24.768;2024-03-22T04:24:22;49.42;;;23.63;;
71150;SDS011;59071;42.138;24.768;2024-03-22T04:26:48;30.77;;;16.38;;
71150;SDS011;59071;42.138;24.768;2024-03-22T04:29:13;25.85;;;14.40;;
71150;SDS011;59071;42.138;24.768;2024-03-22T04:31:38;28.63;;;15.32;;
71150;SDS011;59071;42.138;24.768;2024-03-22T04:34:04;32.17;;;16.33;;
71150;SDS011;59071;42.138;24.768;2024-03-22T04:36:32;29.02;;;16.27;;
71150;SDS011;59071;42.138;24.768;2024-03-22T04:38:58;31.75;;;17.52;;
71150;SDS011;59071;42.138;24.768;2024-03-22T04:41:23;28.42;;;16.45;;
71150;SDS011;59071;42.138;24.768;2024-03-22T04:43:48;31.52;;;16.90;;
71150;SDS011;59071;42.138;24.768;2024-03-22T04:46:14;28.88;;;15.57;;
71150;SDS011;59071;42.138;24.768;2024-03-22T04:48:39;27.00;;;15.02;;
71150;SDS011;59071;42.138;24.768;2024-03-22T04:51:04;28.73;;;14.23;;
71150;SDS011;59071;42.138;24.768;2024-03-22T04:53:30;22.45;;;13.57;;
71150;SDS011;59071;42.138;24.768;2024-03-22T04:55:55;22.05;;;13.50;;
71150;SDS011;59071;42.138;24.768;2024-03-22T04:58:20;23.05;;;13.35;;
71150;SDS011;59071;42.138;24.768;2024-03-22T05:00:46;23.60;;;13.35;;
71150;SDS011;59071;42.138;24.768;2024-03-22T05:03:13;23.67;;;12.55;;
71150;SDS011;59071;42.138;24.768;2024-03-22T05:05:39;21.73;;;12.23;;
71150;SDS011;59071;42.138;24.768;2024-03-22T05:08:05;25.45;;;12.85;;
71150;SDS011;59071;42.138;24.768;2024-03-22T05:10:31;23.58;;;12.90;;
71150;SDS011;59071;42.138;24.768;2024-03-22T05:12:57;22.45;;;12.82;;
71150;SDS011;59071;42.138;24.768;2024-03-22T05:15:23;24.77;;;12.43;;
71150;SDS011;59071;42.138;24.768;2024-03-22T05:17:50;21.42;;;11.60;;
71150;SDS011;59071;42.138;24.768;2024-03-22T05:20:16;20.80;;;11.80;;
71150;SDS011;59071;42.138;24.768;2024-03-22T05:22:41;18.15;;;11.25;;
71150;SDS011;59071;42.138;24.768;2024-03-22T05:25:07;18.48;;;11.50;;
71150;SDS011;59071;42.138;24.768;2024-03-22T05:27:33;20.77;;;11.75;;
71150;SDS011;59071;42.138;24.768;2024-03-22T05:29:59;22.10;;;12.48;;
71150;SDS011;59071;42.138;24.768;2024-03-22T05:32:24;22.15;;;12.00;;
71150;SDS011;59071;42.138;24.768;2024-03-22T05:34:50;21.98;;;12.32;;
71150;SDS011;59071;42.138;24.768;2024-03-22T05:37:16;21.83;;;12.07;;
71150;SDS011;59071;42.138;24.768;2024-03-22T05:39:41;36.00;;;12.98;;
71150;SDS011;59071;42.138;24.768;2024-03-22T05:42:07;24.67;;;12.25;;
71150;SDS011;59071;42.138;24.768;2024-03-22T05:44:32;21.40;;;12.23;;
71150;SDS011;59071;42.138;24.768;2024-03-22T05:46:58;27.23;;;12.30;;
71150;SDS011;59071;42.138;24.768;2024-03-22T05:49:23;25.52;;;12.52;;
71150;SDS011;59071;42.138;24.768;2024-03-22T05:51:49;27.98;;;13.25;;
71150;SDS011;59071;42.138;24.768;2024-03-22T05:54:14;24.67;;;12.48;;
71150;SDS011;59071;42.138;24.768;2024-03-22T05:56:39;22.40;;;12.65;;
71150;SDS011;59071;42.138;24.768;2024-03-22T05:59:05;19.10;;;11.43;;
71150;SDS011;59071;42.138;24.768;2024-03-22T06:01:31;20.23;;;11.38;;
71150;SDS011;59071;42.138;24.768;2024-03-22T06:03:57;22.50;;;11.13;;
71150;SDS011;59071;42.138;24.768;2024-03-22T06:06:22;23.83;;;11.98;;
71150;SDS011;59071;42.138;24.768;2024-03-22T06:08:50;19.20;;;11.65;;
71150;SDS011;59071;42.138;24.768;2024-03-22T06:11:17;29.77;;;11.73;;
71150;SDS011;59071;42.138;24.768;2024-03-22T06:13:43;21.13;;;11.40;;
71150;SDS011;59071;42.138;24.768;2024-03-22T06:16:09;19.27;;;11.80;;
71150;SDS011;59071;42.138;24.768;2024-03-22T06:18:34;17.85;;;11.15;;
71150;SDS011;59071;42.138;24.768;2024-03-22T06:20:59;20.45;;;11.85;;
71150;SDS011;59071;42.138;24.768;2024-03-22T06:23:25;18.13;;;11.70;;
71150;SDS011;59071;42.138;24.768;2024-03-22T06:25:51;19.23;;;11.18;;
71150;SDS011;59071;42.138;24.768;2024-03-22T06:28:17;23.42;;;11.02;;
71150;SDS011;59071;42.138;24.768;2024-03-22T06:30:42;19.70;;;10.52;;
71150;SDS011;59071;42.138;24.768;2024-03-22T06:33:07;14.80;;;9.80;;
71150;SDS011;59071;42.138;24.768;2024-03-22T06:35:33;18.00;;;10.50;;
71150;SDS011;59071;42.138;24.768;2024-03-22T06:37:58;12.90;;;9.35;;
71150;SDS011;59071;42.138;24.768;2024-03-22T06:40:24;18.13;;;10.07;;
71150;SDS011;59071;42.138;24.768;2024-03-22T06:42:50;16.23;;;10.70;;
71150;SDS011;59071;42.138;24.768;2024-03-22T06:45:15;15.48;;;9.65;;
71150;SDS011;59071;42.138;24.768;2024-03-22T06:47:41;14.38;;;9.55;;
71150;SDS011;59071;42.138;24.768;2024-03-22T06:50:06;15.82;;;10.02;;
71150;SDS011;59071;42.138;24.768;2024-03-22T06:52:31;17.40;;;10.05;;
71150;SDS011;59071;42.138;24.768;2024-03-22T06:54:57;14.25;;;9.20;;
71150;SDS011;59071;42.138;24.768;2024-03-22T06:57:22;13.93;;;9.05;;
71150;SDS011;59071;42.138;24.768;2024-03-22T06:59:47;14.25;;;8.57;;
71150;SDS011;59071;42.138;24.768;2024-03-22T07:02:13;12.05;;;8.02;;
71150;SDS011;59071;42.138;24.768;2024-03-22T07:04:39;14.43;;;8.55;;
71150;SDS011;59071;42.138;24.768;2024-03-22T07:07:04;13.70;;;8.18;;
71150;SDS011;59071;42.138;24.768;2024-03-22T07:09:32;14.32;;;8.68;;
71150;SDS011;59071;42.138;24.768;2024-03-22T07:11:58;13.82;;;8.73;;
71150;SDS011;59071;42.138;24.768;2024-03-22T07:14:23;16.98;;;8.35;;
71150;SDS011;59071;42.138;24.768;2024-03-22T07:16:50;11.65;;;7.70;;
71150;SDS011;59071;42.138;24.768;2024-03-22T07:19:16;16.20;;;7.82;;
71150;SDS011;59071;42.138;24.768;2024-03-22T07:21:41;12.43;;;8.95;;
71150;SDS011;59071;42.138;24.768;2024-03-22T07:24:06;28.90;;;18.05;;
71150;SDS011;59071;42.138;24.768;2024-03-22T07:26:32;15.93;;;10.70;;
71150;SDS011;59071;42.138;24.768;2024-03-22T07:28:57;16.05;;;10.90;;
71150;SDS011;59071;42.138;24.768;2024-03-22T07:31:22;12.00;;;8.27;;
71150;SDS011;59071;42.138;24.768;2024-03-22T07:33:47;13.73;;;9.48;;
71150;SDS011;59071;42.138;24.768;2024-03-22T07:36:15;16.38;;;9.63;;
71150;SDS011;59071;42.138;24.768;2024-03-22T07:38:41;21.42;;;13.63;;
71150;SDS011;59071;42.138;24.768;2024-03-22T07:41:06;13.52;;;9.60;;
71150;SDS011;59071;42.138;24.768;2024-03-22T07:43:32;13.95;;;7.68;;
71150;SDS011;59071;42.138;24.768;2024-03-22T07:45:57;11.75;;;8.18;;
71150;SDS011;59071;42.138;24.768;2024-03-22T07:48:22;11.27;;;7.72;;
71150;SDS011;59071;42.138;24.768;2024-03-22T07:50:55;12.82;;;7.63;;
71150;SDS011;59071;42.138;24.768;2024-03-22T07:53:21;11.95;;;7.50;;
71150;SDS011;59071;42.138;24.768;2024-03-22T07:55:46;12.48;;;7.68;;
71150;SDS011;59071;42.138;24.768;2024-03-22T07:58:12;11.43;;;7.15;;
71150;SDS011;59071;42.138;24.768;2024-03-22T08:00:37;12.65;;;7.78;;
71150;SDS011;59071;42.138;24.768;2024-03-22T08:03:03;14.77;;;7.95;;
71150;SDS011;59071;42.138;24.768;2024-03-22T08:05:28;12.70;;;7.68;;
71150;SDS011;59071;42.138;24.768;2024-03-22T08:07:54;14.82;;;7.82;;
71150;SDS011;59071;42.138;24.768;2024-03-22T08:10:19;12.60;;;7.32;;
71150;SDS011;59071;42.138;24.768;2024-03-22T08:12:44;11.82;;;7.80;;
71150;SDS011;59071;42.138;24.768;2024-03-22T08:15:10;13.60;;;7.28;;
71150;SDS011;59071;42.138;24.768;2024-03-22T08:17:35;13.15;;;8.23;;
71150;SDS011;59071;42.138;24.768;2024-03-22T08:20:00;14.57;;;7.95;;
71150;SDS011;59071;42.138;24.768;2024-03-22T08:22:26;13.52;;;7.82;;
71150;SDS011;59071;42.138;24.768;2024-03-22T08:24:51;11.70;;;7.85;;
71150;SDS011;59071;42.138;24.768;2024-03-22T08:27:17;13.40;;;7.95;;
71150;SDS011;59071;42.138;24.768;2024-03-22T08:29:42;9.85;;;7.47;;
71150;SDS011;59071;42.138;24.768;2024-03-22T08:32:07;9.32;;;6.68;;
71150;SDS011;59071;42.138;24.768;2024-03-22T08:34:33;12.60;;;6.93;;
71150;SDS011;59071;42.138;24.768;2024-03-22T08:36:58;12.02;;;7.10;;
71150;SDS011;59071;42.138;24.768;2024-03-22T08:39:24;11.88;;;6.78;;
71150;SDS011;59071;42.138;24.768;2024-03-22T08:41:49;10.95;;;7.13;;
71150;SDS011;59071;42.138;24.768;2024-03-22T08:44:16;9.30;;;6.90;;
71150;SDS011;59071;42.138;24.768;2024-03-22T08:46:41;13.00;;;7.07;;
71150;SDS011;59071;42.138;24.768;2024-03-22T08:49:06;9.48;;;6.75;;
71150;SDS011;59071;42.138;24.768;2024-03-22T08:51:31;10.15;;;6.68;;
71150;SDS011;59071;42.138;24.768;2024-03-22T08:53:57;9.25;;;6.60;;
71150;SDS011;59071;42.138;24.768;2024-03-22T08:56:22;9.02;;;6.55;;
71150;SDS011;59071;42.138;24.768;2024-03-22T08:58:47;10.30;;;7.40;;
71150;SDS011;59071;42.138;24.768;2024-03-22T09:01:13;11.18;;;7.15;;
71150;SDS011;59071;42.138;24.768;2024-03-22T09:03:38;11.30;;;6.78;;
71150;SDS011;59071;42.138;24.768;2024-03-22T09:06:04;10.05;;;6.70;;
71150;SDS011;59071;42.138;24.768;2024-03-22T09:08:29;13.45;;;7.05;;
71150;SDS011;59071;42.138;24.768;2024-03-22T09:10:56;14.35;;;7.43;;
71150;SDS011;59071;42.138;24.768;2024-03-22T09:13:21;10.35;;;6.63;;
71150;SDS011;59071;42.138;24.768;2024-03-22T09:15:46;10.13;;;6.15;;
71150;SDS011;59071;42.138;24.768;2024-03-22T09:18:12;11.20;;;6.13;;
71150;SDS011;59071;42.138;24.768;2024-03-22T09:20:38;8.25;;;6.28;;
71150;SDS011;59071;42.138;24.768;2024-03-22T09:23:03;12.85;;;5.90;;
71150;SDS011;59071;42.138;24.768;2024-03-22T09:25:29;8.20;;;5.30;;
71150;SDS011;59071;42.138;24.768;2024-03-22T09:27:54;8.13;;;5.03;;
71150;SDS011;59071;42.138;24.768;2024-03-22T09:30:22;7.97;;;4.90;;
71150;SDS011;59071;42.138;24.768;2024-03-22T09:32:48;7.10;;;4.45;;
71150;SDS011;59071;42.138;24.768;2024-03-22T09:35:13;10.88;;;4.75;;
71150;SDS011;59071;42.138;24.768;2024-03-22T09:40:08;11.67;;;5.13;;
71150;SDS011;59071;42.138;24.768;2024-03-22T09:42:33;8.65;;;5.57;;
71150;SDS011;59071;42.138;24.768;2024-03-22T09:45:04;7.95;;;5.65;;
71150;SDS011;59071;42.138;24.768;2024-03-22T09:47:33;6.47;;;4.70;;
71150;SDS011;59071;42.138;24.768;2024-03-22T09:49:58;7.07;;;5.32;;
71150;SDS011;59071;42.138;24.768;2024-03-22T09:52:25;7.00;;;4.47;;
71150;SDS011;59071;42.138;24.768;2024-03-22T09:54:52;5.95;;;4.32;;
71150;SDS011;59071;42.138;24.768;2024-03-22T09:57:17;5.43;;;4.20;;
71150;SDS011;59071;42.138;24.768;2024-03-22T09:59:43;8.80;;;4.35;;
71150;SDS011;59071;42.138;24.768;2024-03-22T10:02:11;5.65;;;3.72;;
71150;SDS011;59071;42.138;24.768;2024-03-22T10:04:40;6.07;;;3.90;;
71150;SDS011;59071;42.138;24.768;2024-03-22T10:07:06;8.70;;;5.05;;
71150;SDS011;59071;42.138;24.768;2024-03-22T10:09:33;6.20;;;4.50;;
71150;SDS011;59071;42.138;24.768;2024-03-22T10:11:59;6.70;;;4.18;;
71150;SDS011;59071;42.138;24.768;2024-03-22T10:14:24;5.40;;;4.50;;
71150;SDS011;59071;42.138;24.768;2024-03-22T10:16:53;9.00;;;5.47;;
71150;SDS011;59071;42.138;24.768;2024-03-22T10:19:22;7.40;;;5.15;;
71150;SDS011;59071;42.138;24.768;2024-03-22T10:24:24;8.55;;;5.50;;
71150;SDS011;59071;42.138;24.768;2024-03-22T10:26:49;10.27;;;4.95;;
71150;SDS011;59071;42.138;24.768;2024-03-22T10:29:15;15.15;;;4.63;;
71150;SDS011;59071;42.138;24.768;2024-03-22T10:31:40;5.93;;;4.05;;
71150;SDS011;59071;42.138;24.768;2024-03-22T10:34:06;10.95;;;4.55;;
71150;SDS011;59071;42.138;24.768;2024-03-22T10:36:33;5.00;;;4.00;;
71150;SDS011;59071;42.138;24.768;2024-03-22T10:38:59;6.38;;;4.30;;
71150;SDS011;59071;42.138;24.768;2024-03-22T10:41:26;8.30;;;4.28;;
71150;SDS011;59071;42.138;24.768;2024-03-22T10:43:54;6.45;;;4.00;;
71150;SDS011;59071;42.138;24.768;2024-03-22T10:46:20;10.73;;;4.57;;
71150;SDS011;59071;42.138;24.768;2024-03-22T10:48:46;5.15;;;3.45;;
71150;SDS011;59071;42.138;24.768;2024-03-22T10:51:12;7.15;;;3.50;;
71150;SDS011;59071;42.138;24.768;2024-03-22T10:53:40;5.40;;;3.55;;
71150;SDS011;59071;42.138;24.768;2024-03-22T10:56:06;5.60;;;3.50;;
71150;SDS011;59071;42.138;24.768;2024-03-22T10:58:34;6.85;;;4.40;;
71150;SDS011;59071;42.138;24.768;2024-03-22T11:01:04;5.68;;;3.83;;
71150;SDS011;59071;42.138;24.768;2024-03-22T11:03:30;5.53;;;4.05;;
71150;SDS011;59071;42.138;24.768;2024-03-22T11:05:56;6.68;;;4.15;;
71150;SDS011;59071;42.138;24.768;2024-03-22T11:10:51;6.85;;;3.80;;
71150;SDS011;59071;42.138;24.768;2024-03-22T11:13:16;8.40;;;3.00;;
71150;SDS011;59071;42.138;24.768;2024-03-22T11:15:42;5.22;;;3.13;;
71150;SDS011;59071;42.138;24.768;2024-03-22T11:18:08;5.38;;;3.00;;
71150;SDS011;59071;42.138;24.768;2024-03-22T11:20:37;4.82;;;2.38;;
71150;SDS011;59071;42.138;24.768;2024-03-22T11:23:03;5.68;;;3.20;;
71150;SDS011;59071;42.138;24.768;2024-03-22T11:25:31;4.78;;;3.10;;
71150;SDS011;59071;42.138;24.768;2024-03-22T11:27:57;4.90;;;3.13;;
71150;SDS011;59071;42.138;24.768;2024-03-22T11:30:24;4.00;;;2.90;;
71150;SDS011;59071;42.138;24.768;2024-03-22T11:32:49;4.72;;;3.38;;
71150;SDS011;59071;42.138;24.768;2024-03-22T11:35:15;3.90;;;3.10;;
71150;SDS011;59071;42.138;24.768;2024-03-22T11:37:40;4.07;;;3.17;;
71150;SDS011;59071;42.138;24.768;2024-03-22T11:40:09;5.80;;;3.40;;
71150;SDS011;59071;42.138;24.768;2024-03-22T11:42:36;3.72;;;2.83;;
71150;SDS011;59071;42.138;24.768;2024-03-22T11:45:05;3.95;;;3.00;;
71150;SDS011;59071;42.138;24.768;2024-03-22T11:47:32;3.72;;;2.70;;
71150;SDS011;59071;42.138;24.768;2024-03-22T11:49:59;4.97;;;3.20;;
71150;SDS011;59071;42.138;24.768;2024-03-22T11:52:25;4.20;;;2.85;;
71150;SDS011;59071;42.138;24.768;2024-03-22T11:54:54;4.45;;;2.90;;
71150;SDS011;59071;42.138;24.768;2024-03-22T11:57:23;5.85;;;2.88;;
71150;SDS011;59071;42.138;24.768;2024-03-22T12:02:14;5.18;;;2.90;;
71150;SDS011;59071;42.138;24.768;2024-03-22T12:04:40;3.42;;;2.70;;
71150;SDS011;59071;42.138;24.768;2024-03-22T12:07:15;5.85;;;3.10;;
71150;SDS011;59071;42.138;24.768;2024-03-22T12:09:44;6.45;;;3.10;;
71150;SDS011;59071;42.138;24.768;2024-03-22T12:12:10;7.40;;;3.73;;
71150;SDS011;59071;42.138;24.768;2024-03-22T12:14:37;5.15;;;2.80;;
71150;SDS011;59071;42.138;24.768;2024-03-22T12:17:03;3.95;;;2.90;;
71150;SDS011;59071;42.138;24.768;2024-03-22T12:19:29;4.00;;;3.05;;
71150;SDS011;59071;42.138;24.768;2024-03-22T12:21:54;3.60;;;2.28;;
71150;SDS011;59071;42.138;24.768;2024-03-22T12:24:21;3.97;;;2.85;;
71150;SDS011;59071;42.138;24.768;2024-03-22T12:26:47;4.68;;;2.60;;
71150;SDS011;59071;42.138;24.768;2024-03-22T12:29:15;4.13;;;2.65;;
71150;SDS011;59071;42.138;24.768;2024-03-22T12:31:41;4.78;;;2.42;;
71150;SDS011;59071;42.138;24.768;2024-03-22T12:34:07;4.90;;;2.33;;
71150;SDS011;59071;42.138;24.768;2024-03-22T12:36:32;3.38;;;2.40;;
71150;SDS011;59071;42.138;24.768;2024-03-22T12:38:57;6.93;;;2.85;;
71150;SDS011;59071;42.138;24.768;2024-03-22T12:41:23;7.53;;;3.20;;
71150;SDS011;59071;42.138;24.768;2024-03-22T12:43:48;11.07;;;5.47;;
71150;SDS011;59071;42.138;24.768;2024-03-22T12:46:16;4.07;;;2.50;;
71150;SDS011;59071;42.138;24.768;2024-03-22T12:48:42;4.83;;;3.20;;
71150;SDS011;59071;42.138;24.768;2024-03-22T12:51:07;3.80;;;2.60;;
71150;SDS011;59071;42.138;24.768;2024-03-22T12:53:33;10.40;;;4.45;;
71150;SDS011;59071;42.138;24.768;2024-03-22T12:55:58;5.88;;;3.00;;
71150;SDS011;59071;42.138;24.768;2024-03-22T12:58:23;7.10;;;3.60;;
71150;SDS011;59071;42.138;24.768;2024-03-22T13:00:49;3.88;;;2.42;;
71150;SDS011;59071;42.138;24.768;2024-03-22T13:03:14;4.88;;;2.78;;
71150;SDS011;59071;42.138;24.768;2024-03-22T13:05:41;3.20;;;2.40;;
71150;SDS011;59071;42.138;24.768;2024-03-22T13:08:09;3.60;;;2.65;;
71150;SDS011;59071;42.138;24.768;2024-03-22T13:10:34;6.13;;;2.40;;
71150;SDS011;59071;42.138;24.768;2024-03-22T13:13:00;3.80;;;2.33;;
71150;SDS011;59071;42.138;24.768;2024-03-22T13:15:25;4.47;;;2.50;;
71150;SDS011;59071;42.138;24.768;2024-03-22T13:17:51;6.22;;;2.63;;
71150;SDS011;59071;42.138;24.768;2024-03-22T13:20:17;3.80;;;2.30;;
71150;SDS011;59071;42.138;24.768;2024-03-22T13:22:43;6.15;;;2.83;;
71150;SDS011;59071;42.138;24.768;2024-03-22T13:25:08;4.25;;;3.13;;
71150;SDS011;59071;42.138;24.768;2024-03-22T13:27:35;6.80;;;2.95;;
71150;SDS011;59071;42.138;24.768;2024-03-22T13:30:01;4.95;;;2.50;;
71150;SDS011;59071;42.138;24.768;2024-03-22T13:32:27;3.28;;;2.50;;
71150;SDS011;59071;42.138;24.768;2024-03-22T13:34:52;3.25;;;2.20;;
71150;SDS011;59071;42.138;24.768;2024-03-22T13:37:18;4.03;;;2.38;;
71150;SDS011;59071;42.138;24.768;2024-03-22T13:39:47;3.08;;;2.50;;
71150;SDS011;59071;42.138;24.768;2024-03-22T13:42:14;3.15;;;2.53;;
71150;SDS011;59071;42.138;24.768;2024-03-22T13:44:39;7.30;;;3.50;;
71150;SDS011;59071;42.138;24.768;2024-03-22T13:47:04;4.05;;;2.42;;
71150;SDS011;59071;42.138;24.768;2024-03-22T13:49:30;4.22;;;2.50;;
71150;SDS011;59071;42.138;24.768;2024-03-22T13:51:57;4.45;;;2.40;;
71150;SDS011;59071;42.138;24.768;2024-03-22T13:54:24;2.75;;;2.20;;
71150;SDS011;59071;42.138;24.768;2024-03-22T13:56:49;4.57;;;2.70;;
71150;SDS011;59071;42.138;24.768;2024-03-22T13:59:15;3.75;;;2.50;;
71150;SDS011;59071;42.138;24.768;2024-03-22T14:01:41;4.15;;;2.40;;
71150;SDS011;59071;42.138;24.768;2024-03-22T14:04:10;6.75;;;2.50;;
71150;SDS011;59071;42.138;24.768;2024-03-22T14:06:36;4.57;;;2.40;;
71150;SDS011;59071;42.138;24.768;2024-03-22T14:09:02;3.22;;;2.38;;
71150;SDS011;59071;42.138;24.768;2024-03-22T14:11:30;4.03;;;2.30;;
71150;SDS011;59071;42.138;24.768;2024-03-22T14:13:56;3.45;;;2.38;;
71150;SDS011;59071;42.138;24.768;2024-03-22T14:16:25;3.40;;;2.30;;
71150;SDS011;59071;42.138;24.768;2024-03-22T14:18:50;3.25;;;2.58;;
71150;SDS011;59071;42.138;24.768;2024-03-22T14:21:17;4.32;;;2.63;;
71150;SDS011;59071;42.138;24.768;2024-03-22T14:23:46;3.35;;;2.20;;